TimeCST,TemperatureF,Dew PointF,Humidity,Sea Level PressureIn,VisibilityMPH,Wind Direction,Wind SpeedMPH,Gust SpeedMPH,PrecipitationIn,Events,Conditions,WindDirDegrees,DateUTC
12:53 AM,12.9,9.0,84,30.04,5.0,ENE,4.6,-,N/A,,Overcast,70,2012-12-12 06:53:00
1:53 AM,12.9,10.0,88,30.03,5.0,East,4.6,-,N/A,,Clear,90,2012-12-12 07:53:00
2:53 AM,12.9,10.0,88,30.02,5.0,East,5.8,-,N/A,,Clear,90,2012-12-12 08:53:00
3:53 AM,17.1,12.9,84,29.99,6.0,East,8.1,-,N/A,,Clear,90,2012-12-12 09:53:00
4:53 AM,19.9,16.0,85,29.97,7.0,East,9.2,-,N/A,,Scattered Clouds,100,2012-12-12 10:53:00
5:53 AM,21.9,17.1,82,29.96,8.0,ESE,11.5,-,N/A,,Overcast,110,2012-12-12 11:53:00
6:53 AM,23.0,17.1,78,29.94,9.0,ESE,10.4,-,N/A,,Clear,110,2012-12-12 12:53:00
7:53 AM,24.1,19.0,81,29.92,10.0,ESE,9.2,-,N/A,,Mostly Cloudy,110,2012-12-12 13:53:00
8:53 AM,26.1,19.9,78,29.92,10.0,ESE,9.2,-,N/A,,Clear,120,2012-12-12 14:53:00
9:53 AM,30.0,21.9,72,29.91,10.0,SE,6.9,-,N/A,,Partly Cloudy,140,2012-12-12 15:53:00
10:53 AM,34.0,21.9,61,29.91,10.0,SSW,9.2,-,N/A,,Overcast,200,2012-12-12 16:53:00
11:53 AM,35.1,23.0,61,29.89,10.0,SSW,10.4,-,N/A,,Partly Cloudy,200,2012-12-12 17:53:00
12:53 PM,37.0,24.1,59,29.88,10.0,SSW,8.1,-,N/A,,Clear,200,2012-12-12 18:53:00
1:53 PM,37.9,25.0,60,29.86,10.0,South,8.1,-,N/A,,Clear,180,2012-12-12 19:53:00
2:53 PM,37.9,25.0,60,29.87,10.0,South,6.9,-,N/A,,Clear,180,2012-12-12 20:53:00
3:53 PM,37.9,26.1,62,29.88,10.0,South,4.6,-,N/A,,Clear,170,2012-12-12 21:53:00
4:53 PM,37.0,26.1,65,29.87,10.0,SSE,4.6,-,N/A,,Clear,160,2012-12-12 22:53:00
5:53 PM,37.9,27.0,65,29.89,10.0,SSE,4.6,-,N/A,,Mostly Cloudy,160,2012-12-12 23:53:00
6:53 PM,37.9,27.0,65,29.89,10.0,South,6.9,-,N/A,,Clear,170,2012-12-13 00:53:00
7:53 PM,39.9,25.0,55,29.91,10.0,South,4.6,-,N/A,,Clear,190,2012-12-13 01:53:00
8:53 PM,39.0,24.1,55,29.92,10.0,South,9.2,-,N/A,,Clear,190,2012-12-13 02:53:00
9:53 PM,37.0,23.0,57,29.93,10.0,SSW,8.1,-,N/A,,Clear,200,2012-12-13 03:53:00
10:53 PM,37.0,21.9,54,29.93,10.0,South,10.4,-,N/A,,Clear,190,2012-12-13 04:53:00
11:53 PM,36.0,21.9,57,29.94,10.0,SSW,8.1,-,N/A,,Clear,200,2012-12-13 05:53:00